TimeEDT,TemperatureF,Dew PointF,Humidity,Sea Level PressureIn,VisibilityMPH,Wind Direction,Wind SpeedMPH,Gust SpeedMPH,PrecipitationIn,Events,Conditions,WindDirDegrees,DateUTC
12:51 AM,60.1,59.0,96,30.14,3.0,ENE,10.4,-,N/A,,Overcast,60,2013-08-17 04:51:00
1:18 AM,60.8,59.0,94,30.13,3.0,ENE,8.1,-,N/A,,Overcast,60,2013-08-17 05:18:00
1:29 AM,60.8,59.0,94,30.13,3.0,ENE,9.2,-,N/A,,Overcast,60,2013-08-17 05:29:00
1:37 AM,60.8,59.0,94,30.13,2.5,ENE,8.1,-,N/A,,Overcast,60,2013-08-17 05:37:00
1:51 AM,60.1,59.0,96,30.13,2.5,ENE,10.4,-,N/A,,Overcast,60,2013-08-17 05:51:00
2:00 AM,60.8,59.0,94,30.13,3.0,ENE,9.2,-,N/A,,Overcast,60,2013-08-17 06:00:00
2:26 AM,60.8,59.0,94,30.13,2.0,ENE,9.2,-,N/A,,Overcast,60,2013-08-17 06:26:00
2:51 AM,60.1,59.0,96,30.12,2.5,ENE,9.2,-,0.01,Rain,Light Rain,60,2013-08-17 06:51:00
2:59 AM,60.8,59.0,94,30.12,3.0,ENE,9.2,-,0.00,Rain,Light Rain,60,2013-08-17 06:59:00
3:11 AM,60.8,60.8,100,30.12,2.5,ENE,9.2,-,0.00,Rain,Light Rain,60,2013-08-17 07:11:00
3:26 AM,60.8,60.8,100,30.12,3.0,NE,8.1,16.1,0.01,,Overcast,50,2013-08-17 07:26:00
3:51 AM,61.0,60.1,97,30.11,4.0,ENE,11.5,17.3,0.01,Rain,Light Rain,60,2013-08-17 07:51:00
4:51 AM,61.0,59.0,93,30.11,4.0,ENE,10.4,-,0.01,,Overcast,60,2013-08-17 08:51:00
5:11 AM,60.8,59.0,94,30.11,2.5,NE,11.5,-,0.00,Rain,Light Rain,50,2013-08-17 09:11:00
5:23 AM,60.8,59.0,94,30.11,3.0,ENE,11.5,-,0.01,,Overcast,70,2013-08-17 09:23:00
5:51 AM,61.0,59.0,93,30.11,7.0,ENE,12.7,-,0.01,,Overcast,60,2013-08-17 09:51:00
6:51 AM,61.0,59.0,93,30.12,8.0,ENE,10.4,-,N/A,,Overcast,70,2013-08-17 10:51:00
7:14 AM,60.8,59.0,94,30.12,8.0,ENE,15.0,18.4,N/A,,Overcast,60,2013-08-17 11:14:00
7:29 AM,60.8,59.0,94,30.13,7.0,ENE,9.2,-,N/A,,Overcast,70,2013-08-17 11:29:00
7:38 AM,60.8,59.0,94,30.13,7.0,ENE,8.1,-,N/A,,Overcast,70,2013-08-17 11:38:00
7:51 AM,61.0,59.0,93,30.12,7.0,ENE,9.2,-,N/A,,Overcast,60,2013-08-17 11:51:00
8:51 AM,62.1,59.0,90,30.14,6.0,ENE,9.2,-,0.00,,Overcast,60,2013-08-17 12:51:00
9:41 AM,62.6,60.8,94,30.15,8.0,ENE,11.5,-,N/A,,Overcast,70,2013-08-17 13:41:00
9:51 AM,63.0,60.1,90,30.15,7.0,East,9.2,16.1,N/A,,Overcast,80,2013-08-17 13:51:00
10:16 AM,62.6,60.8,94,30.16,7.0,East,13.8,-,N/A,,Overcast,80,2013-08-17 14:16:00
10:51 AM,64.0,61.0,90,30.16,8.0,ENE,10.4,-,0.00,,Overcast,70,2013-08-17 14:51:00
11:18 AM,62.6,60.8,94,30.17,2.0,ENE,11.5,-,0.04,Rain,Rain,70,2013-08-17 15:18:00
11:30 AM,64.4,62.6,94,30.17,6.0,ENE,10.4,-,0.05,Rain,Light Rain,70,2013-08-17 15:30:00
11:51 AM,64.9,62.1,90,30.16,6.0,ENE,9.2,-,0.05,,Overcast,70,2013-08-17 15:51:00
12:14 PM,64.4,62.6,94,30.16,2.0,East,10.4,19.6,0.00,Rain,Light Rain,80,2013-08-17 16:14:00
12:34 PM,64.4,62.6,94,30.16,3.0,East,10.4,-,0.00,,Overcast,80,2013-08-17 16:34:00
12:47 PM,64.4,62.6,94,30.16,4.0,East,8.1,-,0.00,,Overcast,80,2013-08-17 16:47:00
12:51 PM,64.0,63.0,96,30.15,3.0,ENE,10.4,-,0.00,,Overcast,70,2013-08-17 16:51:00
1:00 PM,64.4,62.6,94,30.16,2.0,East,8.1,-,N/A,,Overcast,80,2013-08-17 17:00:00
1:08 PM,64.4,62.6,94,30.16,1.8,East,10.4,-,0.00,Rain,Light Rain,80,2013-08-17 17:08:00
1:15 PM,64.4,62.6,94,30.16,2.5,East,9.2,-,0.00,Rain,Light Rain,80,2013-08-17 17:15:00
1:43 PM,64.4,62.6,94,30.15,1.5,East,6.9,-,0.01,Rain,Light Rain,80,2013-08-17 17:43:00
1:51 PM,64.0,63.0,96,30.15,1.0,East,8.1,-,0.01,Rain,Light Rain,80,2013-08-17 17:51:00
2:15 PM,64.4,64.4,100,30.14,2.0,East,8.1,-,0.02,Rain,Light Rain,80,2013-08-17 18:15:00
2:28 PM,64.4,64.4,100,30.13,3.0,East,8.1,-,0.02,Rain,Light Rain,80,2013-08-17 18:28:00
2:51 PM,64.9,64.0,97,30.13,4.0,East,10.4,-,0.03,Rain,Light Rain,80,2013-08-17 18:51:00
3:51 PM,64.9,64.0,97,30.11,6.0,East,8.1,-,0.05,Rain,Light Rain,80,2013-08-17 19:51:00
4:51 PM,66.0,64.9,96,30.11,8.0,East,9.2,-,0.05,Rain,Light Rain,80,2013-08-17 20:51:00
5:51 PM,66.0,64.9,96,30.11,8.0,East,9.2,-,0.00,Rain,Light Rain,80,2013-08-17 21:51:00
6:31 PM,66.2,64.4,94,30.12,6.0,ENE,6.9,-,0.02,Rain,Light Rain,70,2013-08-17 22:31:00
6:51 PM,66.0,64.9,96,30.12,3.0,East,6.9,-,0.02,Rain,Light Rain,100,2013-08-17 22:51:00
7:02 PM,66.2,64.4,94,30.12,2.5,East,8.1,-,0.00,Rain,Light Rain,80,2013-08-17 23:02:00
7:10 PM,66.2,64.4,94,30.12,3.0,East,8.1,-,0.01,Rain,Light Rain,90,2013-08-17 23:10:00
7:20 PM,66.2,64.4,94,30.13,2.5,East,8.1,-,0.01,Rain,Light Rain,90,2013-08-17 23:20:00
7:27 PM,66.2,64.4,94,30.13,4.0,East,5.8,-,0.01,Rain,Light Rain,90,2013-08-17 23:27:00
7:34 PM,66.2,64.4,94,30.13,5.0,East,8.1,-,0.01,Rain,Light Rain,90,2013-08-17 23:34:00
7:51 PM,66.0,64.9,96,30.13,4.0,East,5.8,-,0.02,Rain,Light Rain,90,2013-08-17 23:51:00
8:48 PM,66.2,64.4,94,30.13,6.0,East,6.9,-,0.04,Rain,Light Rain,90,2013-08-18 00:48:00
8:51 PM,66.0,64.9,96,30.12,6.0,East,6.9,-,0.05,Rain,Light Rain,90,2013-08-18 00:51:00
9:41 PM,66.2,64.4,94,30.15,2.0,East,4.6,-,0.10,Rain,Light Rain,80,2013-08-18 01:41:00
9:51 PM,66.0,64.9,96,30.14,1.8,ESE,5.8,-,0.11,Rain,Light Rain,110,2013-08-18 01:51:00
10:06 PM,66.2,64.4,94,30.17,3.0,ESE,3.5,-,0.01,Rain,Light Rain,110,2013-08-18 02:06:00
10:40 PM,66.2,66.2,100,30.15,3.0,East,8.1,-,0.02,,Overcast,80,2013-08-18 02:40:00
10:51 PM,66.0,66.0,100,30.15,4.0,East,6.9,-,0.02,,Overcast,90,2013-08-18 02:51:00
10:58 PM,66.2,66.2,100,30.16,6.0,East,5.8,-,N/A,,Overcast,80,2013-08-18 02:58:00
11:51 PM,66.0,66.0,100,30.16,3.0,East,5.8,-,N/A,,Overcast,100,2013-08-18 03:51:00
11:59 PM,66.2,66.2,100,30.17,2.0,East,4.6,-,0.00,Rain,Light Rain,100,2013-08-18 03:59:00